createdAt,value
2022-09-07T00:00:09.809Z,25.48
2022-09-07T00:01:11.382Z,25.48
2022-09-07T00:02:12.887Z,25.47
2022-09-07T00:03:14.521Z,25.46
2022-09-07T00:04:16.287Z,25.45
2022-09-07T00:05:17.802Z,25.45
2022-09-07T00:06:19.331Z,25.44
2022-09-07T00:07:20.881Z,25.45
2022-09-07T00:08:23.022Z,25.43
2022-09-07T00:09:24.663Z,25.43
2022-09-07T00:10:26.306Z,25.43
2022-09-07T00:11:27.915Z,25.42
2022-09-07T00:12:29.424Z,25.41
2022-09-07T00:13:32.177Z,25.41
2022-09-07T00:14:34.139Z,25.41
2022-09-07T00:15:39.224Z,25.41
2022-09-07T00:16:40.931Z,25.40
2022-09-07T00:17:42.493Z,25.40
2022-09-07T00:18:46.241Z,25.41
2022-09-07T00:19:48.291Z,25.41
2022-09-07T00:20:59.486Z,25.41
2022-09-07T00:22:01.053Z,25.40
2022-09-07T00:23:02.863Z,25.40
2022-09-07T00:24:04.505Z,25.41
2022-09-07T00:25:06.430Z,25.40
2022-09-07T00:26:14.538Z,25.39
2022-09-07T00:27:16.107Z,25.39
2022-09-07T00:28:17.591Z,25.39
2022-09-07T00:29:19.167Z,25.38
2022-09-07T00:30:20.665Z,25.40
2022-09-07T00:31:22.609Z,25.39
2022-09-07T00:32:24.271Z,25.40
2022-09-07T00:33:25.803Z,25.40
2022-09-07T00:34:27.318Z,25.39
2022-09-07T00:35:28.851Z,25.39
2022-09-07T00:36:30.397Z,25.40
2022-09-07T00:37:31.891Z,25.40
2022-09-07T00:38:33.414Z,25.39
2022-09-07T00:39:35.159Z,25.38
2022-09-07T00:40:36.715Z,25.40
2022-09-07T00:41:38.240Z,25.40
2022-09-07T00:42:39.850Z,25.41
2022-09-07T00:43:45.467Z,25.41
2022-09-07T00:44:59.027Z,25.41
2022-09-07T00:46:00.838Z,25.40
2022-09-07T00:47:02.347Z,25.39
2022-09-07T00:48:08.031Z,25.39
2022-09-07T00:49:12.180Z,25.39
2022-09-07T00:50:19.255Z,25.38
2022-09-07T00:51:22.425Z,25.36
2022-09-07T00:52:23.966Z,25.35
2022-09-07T00:53:27.891Z,25.33
2022-09-07T00:54:40.192Z,25.32
2022-09-07T00:55:42.531Z,25.31
2022-09-07T00:56:44.199Z,25.29
2022-09-07T00:57:46.886Z,25.28
2022-09-07T00:58:48.384Z,25.27
2022-09-07T00:59:50.591Z,25.25
2022-09-07T01:00:52.126Z,25.25
2022-09-07T01:01:53.969Z,25.24
2022-09-07T01:02:55.736Z,25.24
2022-09-07T01:03:57.548Z,25.23
2022-09-07T01:05:04.492Z,25.23
2022-09-07T01:06:16.508Z,25.22
2022-09-07T01:07:18.194Z,25.21
2022-09-07T01:08:19.683Z,25.20
2022-09-07T01:09:22.879Z,25.18
2022-09-07T01:10:25.218Z,25.15
2022-09-07T01:11:26.723Z,25.14
2022-09-07T01:12:28.249Z,25.11
2022-09-07T01:13:29.827Z,25.04
2022-09-07T01:14:32.227Z,25.03
2022-09-07T01:15:39.950Z,25.01
2022-09-07T01:16:56.702Z,24.97
2022-09-07T01:18:02.450Z,24.94
2022-09-07T01:19:15.986Z,24.92
2022-09-07T01:20:38.023Z,24.90
2022-09-07T01:21:45.182Z,24.86
2022-09-07T01:22:46.714Z,24.85
2022-09-07T01:23:48.262Z,24.85
2022-09-07T01:25:05.013Z,24.84
2022-09-07T01:26:25.446Z,24.82
2022-09-07T01:27:39.217Z,24.81
2022-09-07T01:28:41.051Z,24.79
2022-09-07T01:30:00.890Z,24.79
2022-09-07T01:31:09.544Z,24.78
2022-09-07T01:32:21.452Z,24.78
2022-09-07T01:33:41.108Z,24.77
2022-09-07T01:34:43.312Z,24.77
2022-09-07T01:35:44.882Z,24.77
2022-09-07T01:37:06.636Z,24.70
2022-09-07T01:38:17.174Z,24.57
2022-09-07T01:39:18.713Z,24.46
2022-09-07T01:40:26.027Z,24.42
2022-09-07T01:41:46.061Z,24.34
2022-09-07T01:42:54.681Z,24.32
2022-09-07T01:43:59.315Z,24.35
2022-09-07T01:45:01.691Z,24.38
2022-09-07T01:46:03.548Z,24.40
2022-09-07T01:47:06.262Z,24.42
2022-09-07T01:48:08.494Z,24.47
2022-09-07T01:49:11.273Z,24.48
2022-09-07T01:50:12.831Z,24.49
2022-09-07T01:51:14.334Z,24.51
2022-09-07T01:52:17.407Z,24.52
2022-09-07T01:53:24.639Z,24.53
2022-09-07T01:54:29.172Z,24.54
2022-09-07T01:55:35.426Z,24.54
2022-09-07T01:56:38.446Z,24.53
2022-09-07T01:57:42.731Z,24.53
2022-09-07T01:58:47.415Z,24.53
2022-09-07T01:59:51.001Z,24.54
2022-09-07T02:00:56.395Z,24.54
2022-09-07T02:02:01.003Z,24.56
2022-09-07T02:03:21.917Z,24.57
2022-09-07T02:04:24.841Z,24.58
2022-09-07T02:05:50.578Z,24.60
2022-09-07T02:07:00.209Z,24.61
2022-09-07T02:08:05.217Z,24.62
2022-09-07T02:09:08.074Z,24.63
2022-09-07T02:10:16.575Z,24.63
2022-09-07T02:11:20.115Z,24.52
2022-09-07T02:12:26.231Z,24.61
2022-09-07T02:13:37.876Z,24.60
2022-09-07T02:14:40.939Z,24.61
2022-09-07T02:15:47.533Z,24.61
2022-09-07T02:16:52.558Z,24.60
2022-09-07T02:17:55.202Z,24.59
2022-09-07T02:18:57.535Z,24.59
2022-09-07T02:20:03.850Z,24.58
2022-09-07T02:21:05.799Z,24.55
2022-09-07T02:22:09.064Z,24.55
2022-09-07T02:23:20.581Z,24.55
2022-09-07T02:24:23.838Z,24.54
2022-09-07T02:25:27.508Z,24.53
2022-09-07T02:26:29.403Z,24.52
2022-09-07T02:27:40.643Z,24.51
2022-09-07T02:28:42.227Z,24.51
2022-09-07T02:29:43.857Z,24.51
2022-09-07T02:30:46.078Z,24.50
2022-09-07T02:31:47.757Z,24.49
2022-09-07T02:32:49.277Z,24.49
2022-09-07T02:33:50.858Z,24.47
2022-09-07T02:34:52.344Z,24.45
2022-09-07T02:35:53.942Z,24.45
2022-09-07T02:36:55.440Z,24.44
2022-09-07T02:37:56.934Z,24.44
2022-09-07T02:38:58.486Z,24.42
2022-09-07T02:40:00.430Z,24.43
2022-09-07T02:41:02.598Z,24.43
2022-09-07T02:42:04.255Z,24.43
2022-09-07T02:43:06.455Z,24.42
2022-09-07T02:44:09.210Z,24.42
2022-09-07T02:45:11.317Z,24.40
2022-09-07T02:46:15.686Z,24.38
2022-09-07T02:47:36.130Z,24.32
2022-09-07T02:48:42.348Z,24.27
2022-09-07T02:50:02.672Z,24.27
2022-09-07T02:51:07.544Z,24.27
2022-09-07T02:52:11.883Z,24.28
2022-09-07T02:53:25.734Z,24.25
2022-09-07T02:54:33.479Z,24.26
2022-09-07T02:55:44.130Z,24.26
2022-09-07T02:56:51.290Z,24.26
2022-09-07T02:58:00.446Z,24.25
2022-09-07T02:59:07.663Z,24.25
2022-09-07T03:00:14.242Z,24.25
2022-09-07T03:01:24.693Z,24.25
2022-09-07T03:02:26.390Z,24.26
2022-09-07T03:03:35.312Z,24.21
2022-09-07T03:04:36.930Z,24.25
2022-09-07T03:05:42.913Z,24.24
2022-09-07T03:06:46.268Z,24.25
2022-09-07T03:07:50.679Z,24.26
2022-09-07T03:08:53.551Z,24.26
2022-09-07T03:09:55.111Z,24.24
2022-09-07T03:10:56.666Z,24.23
2022-09-07T03:11:58.261Z,24.20
2022-09-07T03:12:59.778Z,24.19
2022-09-07T03:14:16.711Z,24.18
2022-09-07T03:15:21.885Z,24.11
2022-09-07T03:16:23.605Z,24.08
2022-09-07T03:17:25.211Z,24.06
2022-09-07T03:18:27.010Z,24.05
2022-09-07T03:19:28.560Z,24.03
2022-09-07T03:20:30.075Z,24.03
2022-09-07T03:21:31.674Z,24.04
2022-09-07T03:22:34.863Z,24.04
2022-09-07T03:23:37.734Z,24.03
2022-09-07T03:24:39.977Z,24.04
2022-09-07T03:25:41.495Z,24.04
2022-09-07T03:26:43.800Z,23.99
2022-09-07T03:27:45.482Z,23.98
2022-09-07T03:28:47.595Z,23.99
2022-09-07T03:29:49.231Z,23.97
2022-09-07T03:30:50.835Z,23.96
2022-09-07T03:31:52.491Z,23.94
2022-09-07T03:32:54.016Z,23.94
2022-09-07T03:33:55.569Z,23.93
2022-09-07T03:34:57.094Z,23.92
2022-09-07T03:35:59.826Z,23.92
2022-09-07T03:37:01.330Z,23.91
2022-09-07T03:38:02.939Z,23.93
2022-09-07T03:39:04.605Z,23.89
2022-09-07T03:40:07.259Z,23.89
2022-09-07T03:41:08.933Z,23.88
2022-09-07T03:42:10.438Z,23.87
2022-09-07T03:43:12.326Z,23.84
2022-09-07T03:44:13.899Z,23.85
2022-09-07T03:45:15.476Z,23.83
2022-09-07T03:46:19.540Z,23.82
2022-09-07T03:47:21.126Z,23.85
2022-09-07T03:48:22.626Z,23.83
2022-09-07T03:49:24.168Z,23.77
2022-09-07T03:50:25.725Z,23.75
2022-09-07T03:51:27.247Z,23.74
2022-09-07T03:52:28.986Z,23.73
2022-09-07T03:53:33.938Z,23.73
2022-09-07T03:54:39.021Z,23.69
2022-09-07T03:55:41.266Z,23.67
2022-09-07T03:56:42.819Z,23.62
2022-09-07T03:57:44.354Z,23.62
2022-09-07T03:58:46.191Z,23.61
2022-09-07T03:59:47.818Z,23.55
2022-09-07T04:00:49.366Z,23.56
2022-09-07T04:01:50.978Z,23.57
2022-09-07T04:02:52.608Z,23.59
2022-09-07T04:04:00.039Z,23.59
2022-09-07T04:05:03.718Z,23.60
2022-09-07T04:06:05.358Z,23.61
2022-09-07T04:07:06.915Z,23.59
2022-09-07T04:08:08.468Z,23.61
2022-09-07T04:09:11.239Z,23.63
2022-09-07T04:10:12.737Z,23.63
2022-09-07T04:11:15.378Z,23.64
2022-09-07T04:12:16.938Z,23.66
2022-09-07T04:13:18.491Z,23.67
2022-09-07T04:14:20.074Z,23.67
2022-09-07T04:15:21.569Z,23.64
2022-09-07T04:16:23.879Z,23.56
2022-09-07T04:17:25.430Z,23.57
2022-09-07T04:18:27.002Z,23.58
2022-09-07T04:19:29.175Z,23.57
2022-09-07T04:20:31.222Z,23.52
2022-09-07T04:21:32.894Z,23.51
2022-09-07T04:22:34.388Z,23.51
2022-09-07T04:23:39.567Z,23.53
2022-09-07T04:24:41.065Z,23.53
2022-09-07T04:25:48.957Z,23.54
2022-09-07T04:26:50.463Z,23.52
2022-09-07T04:27:52.125Z,23.48
2022-09-07T04:28:54.406Z,23.49
2022-09-07T04:29:55.908Z,23.49
2022-09-07T04:31:01.501Z,23.50
2022-09-07T04:32:03.046Z,23.50
2022-09-07T04:33:04.567Z,23.52
2022-09-07T04:34:06.193Z,23.53
2022-09-07T04:35:07.844Z,23.52
2022-09-07T04:36:09.449Z,23.52
2022-09-07T04:37:12.570Z,23.48
2022-09-07T04:38:14.546Z,23.46
2022-09-07T04:39:16.153Z,23.46
2022-09-07T04:40:17.703Z,23.39
2022-09-07T04:41:19.307Z,23.39
2022-09-07T04:42:21.023Z,23.38
2022-09-07T04:43:22.514Z,23.37
2022-09-07T04:44:24.024Z,23.36
2022-09-07T04:45:25.694Z,23.34
2022-09-07T04:46:27.958Z,23.33
2022-09-07T04:47:30.759Z,23.32
2022-09-07T04:48:32.285Z,23.34
2022-09-07T04:49:33.771Z,23.33
2022-09-07T04:50:35.335Z,23.32
2022-09-07T04:51:36.857Z,23.30
2022-09-07T04:52:38.346Z,23.26
2022-09-07T04:53:39.874Z,23.22
2022-09-07T04:54:41.518Z,23.17
2022-09-07T04:55:43.033Z,23.15
2022-09-07T04:56:44.670Z,23.11
2022-09-07T04:57:48.710Z,23.11
2022-09-07T04:58:50.248Z,23.03
2022-09-07T04:59:52.258Z,22.99
2022-09-07T05:00:54.183Z,22.87
2022-09-07T05:01:55.795Z,22.80
2022-09-07T05:02:57.394Z,22.76
2022-09-07T05:03:59.549Z,22.78
2022-09-07T05:05:02.911Z,22.79
2022-09-07T05:06:04.797Z,22.81
2022-09-07T05:07:06.379Z,22.84
2022-09-07T05:08:07.904Z,22.85
2022-09-07T05:09:09.858Z,22.87
2022-09-07T05:10:11.423Z,22.91
2022-09-07T05:11:13.033Z,22.95
2022-09-07T05:12:14.575Z,22.97
2022-09-07T05:13:16.172Z,23.00
2022-09-07T05:14:17.670Z,22.99
2022-09-07T05:15:19.174Z,23.00
2022-09-07T05:16:21.765Z,22.98
2022-09-07T05:17:23.350Z,22.99
2022-09-07T05:18:25.214Z,23.00
2022-09-07T05:19:27.914Z,23.01
2022-09-07T05:20:29.410Z,23.01
2022-09-07T05:21:31.567Z,23.01
2022-09-07T05:22:35.606Z,23.00
2022-09-07T05:23:37.146Z,23.01
2022-09-07T05:24:38.646Z,22.99
2022-09-07T05:25:46.688Z,22.98
2022-09-07T05:26:48.224Z,22.97
2022-09-07T05:27:49.910Z,22.96
2022-09-07T05:28:52.180Z,22.97
2022-09-07T05:30:01.145Z,22.95
2022-09-07T05:31:19.792Z,22.94
2022-09-07T05:32:21.870Z,22.93
2022-09-07T05:34:46.038Z,22.95
2022-09-07T05:35:56.150Z,22.94
2022-09-07T05:36:57.642Z,22.95
2022-09-07T05:37:59.158Z,22.97
2022-09-07T05:39:00.707Z,22.99
2022-09-07T05:40:02.284Z,23.02
2022-09-07T05:41:30.195Z,23.04
2022-09-07T05:42:31.896Z,23.05
2022-09-07T05:43:33.979Z,23.07
2022-09-07T05:45:44.318Z,23.06
2022-09-07T05:46:45.867Z,23.08
2022-09-07T05:47:48.569Z,23.11
2022-09-07T05:48:50.086Z,23.13
2022-09-07T05:49:52.964Z,23.14
2022-09-07T05:50:57.996Z,23.16
2022-09-07T05:51:59.563Z,23.17
2022-09-07T05:53:01.085Z,23.15
2022-09-07T05:54:02.597Z,23.16
2022-09-07T05:55:26.261Z,23.17
2022-09-07T05:56:25.894Z,23.18
2022-09-07T05:57:27.674Z,23.19
2022-09-07T05:58:29.246Z,23.22
2022-09-07T05:59:30.842Z,23.23
2022-09-07T06:00:32.342Z,23.20
2022-09-07T06:01:35.574Z,23.20
2022-09-07T06:02:39.820Z,23.20
2022-09-07T06:03:41.790Z,23.22
2022-09-07T06:04:43.366Z,23.23
2022-09-07T06:05:44.911Z,23.24
2022-09-07T06:07:04.566Z,23.25
2022-09-07T06:08:08.023Z,23.25
2022-09-07T06:09:11.343Z,23.24
2022-09-07T06:11:36.296Z,23.19
2022-09-07T06:12:37.888Z,23.16
2022-09-07T06:13:40.063Z,23.07
2022-09-07T06:14:41.561Z,23.15
2022-09-07T06:15:44.092Z,23.14
2022-09-07T06:16:45.695Z,23.16
2022-09-07T06:17:47.273Z,23.16
2022-09-07T06:18:49.135Z,23.12
2022-09-07T06:19:50.627Z,23.11
2022-09-07T06:20:52.118Z,23.10
2022-09-07T06:21:53.719Z,23.12
2022-09-07T06:22:55.418Z,23.09
2022-09-07T06:23:57.500Z,23.15
2022-09-07T06:24:59.465Z,23.14
2022-09-07T06:26:01.116Z,23.16
2022-09-07T06:27:02.695Z,23.08
2022-09-07T06:28:04.213Z,23.08
2022-09-07T06:29:05.742Z,23.10
2022-09-07T06:30:07.698Z,23.11
2022-09-07T06:31:10.122Z,23.09
2022-09-07T06:33:33.606Z,22.96
2022-09-07T06:34:35.195Z,22.98
2022-09-07T06:35:36.721Z,22.99
2022-09-07T06:36:38.224Z,23.05
2022-09-07T06:37:39.799Z,23.05
2022-09-07T06:38:41.438Z,23.10
2022-09-07T06:39:43.046Z,23.12
2022-09-07T06:40:44.838Z,23.20
2022-09-07T06:42:01.614Z,23.19
2022-09-07T06:43:05.647Z,23.24
2022-09-07T06:44:07.359Z,23.29
2022-09-07T06:45:11.232Z,23.32
2022-09-07T06:47:35.066Z,23.45
2022-09-07T06:48:36.608Z,23.47
2022-09-07T06:49:38.273Z,23.49
2022-09-07T06:50:39.799Z,23.52
2022-09-07T06:51:41.314Z,23.53
2022-09-07T06:55:27.773Z,23.59
2022-09-07T06:56:30.050Z,23.62
2022-09-07T06:57:31.618Z,23.64
2022-09-07T06:58:33.203Z,23.66
2022-09-07T06:59:35.076Z,23.63
2022-09-07T07:00:36.618Z,23.64
2022-09-07T07:01:38.171Z,23.67
2022-09-07T07:02:39.723Z,23.68
2022-09-07T07:03:41.615Z,23.68
2022-09-07T07:04:43.194Z,23.68
2022-09-07T07:05:54.178Z,23.64
2022-09-07T07:06:55.690Z,23.65
2022-09-07T07:07:57.481Z,23.68
2022-09-07T07:08:59.022Z,23.69
2022-09-07T07:10:00.541Z,23.73
2022-09-07T07:11:06.642Z,23.73
2022-09-07T07:12:09.447Z,23.77
2022-09-07T07:13:10.961Z,23.78
2022-09-07T07:14:15.826Z,23.75
2022-09-07T07:15:17.334Z,23.78
2022-09-07T07:16:19.389Z,23.77
2022-09-07T07:17:20.950Z,23.78
2022-09-07T07:18:22.450Z,23.83
2022-09-07T07:19:24.020Z,23.85
2022-09-07T07:20:25.598Z,23.91
2022-09-07T07:21:28.962Z,23.90
2022-09-07T07:22:46.689Z,23.92
2022-09-07T07:23:51.872Z,23.96
2022-09-07T07:24:53.444Z,24.02
2022-09-07T07:25:54.964Z,24.10
2022-09-07T07:26:56.638Z,24.16
2022-09-07T07:29:20.006Z,24.21
2022-09-07T07:30:22.712Z,24.26
2022-09-07T07:31:24.876Z,24.29
2022-09-07T07:32:26.383Z,24.34
2022-09-07T07:33:31.764Z,24.38
2022-09-07T07:34:33.508Z,24.38
2022-09-07T07:35:35.440Z,24.41
2022-09-07T07:36:36.961Z,24.45
2022-09-07T07:37:38.607Z,24.49
2022-09-07T07:40:20.445Z,24.61
2022-09-07T07:42:45.910Z,24.73
2022-09-07T07:43:48.335Z,24.76
2022-09-07T07:46:15.263Z,24.86
2022-09-07T07:47:16.748Z,24.90
2022-09-07T07:48:18.242Z,24.93
2022-09-07T07:49:19.918Z,24.95
2022-09-07T07:50:36.764Z,24.93
2022-09-07T07:54:21.466Z,25.03
2022-09-07T07:56:44.439Z,25.12
2022-09-07T07:57:46.784Z,25.16
2022-09-07T07:58:48.499Z,25.21
2022-09-07T07:59:50.078Z,25.26
2022-09-07T08:00:54.688Z,25.33
2022-09-07T08:01:57.280Z,25.32
2022-09-07T08:02:58.891Z,25.33
2022-09-07T08:04:00.518Z,25.35
2022-09-07T08:05:02.399Z,25.40
2022-09-07T08:06:14.030Z,25.41
2022-09-07T08:07:15.822Z,25.46
2022-09-07T08:08:17.378Z,25.50
2022-09-07T08:09:18.859Z,25.43
2022-09-07T08:10:20.399Z,25.42
2022-09-07T08:11:22.069Z,25.23
2022-09-07T08:12:26.634Z,25.07
2022-09-07T08:13:33.788Z,25.13
2022-09-07T08:14:40.564Z,25.16
2022-09-07T08:15:45.211Z,25.20
2022-09-07T08:16:46.792Z,25.21
2022-09-07T08:17:48.460Z,25.25
2022-09-07T08:18:50.019Z,25.30
2022-09-07T08:19:52.421Z,25.28
2022-09-07T08:20:53.926Z,25.28
2022-09-07T08:21:55.380Z,25.22
2022-09-07T08:22:56.821Z,25.16
2022-09-07T08:24:00.079Z,25.14
2022-09-07T08:25:01.591Z,25.19
2022-09-07T08:26:03.204Z,25.19
2022-09-07T08:27:04.658Z,25.11
2022-09-07T08:28:06.203Z,25.13
2022-09-07T08:29:07.718Z,25.18
2022-09-07T08:30:09.698Z,25.13
2022-09-07T08:31:12.324Z,25.09
2022-09-07T08:32:13.791Z,25.07
2022-09-07T08:33:15.290Z,25.17
2022-09-07T08:34:16.793Z,25.18
2022-09-07T08:35:18.244Z,25.22
2022-09-07T08:36:20.021Z,25.24
2022-09-07T08:37:21.931Z,25.27
2022-09-07T08:38:23.414Z,25.27
2022-09-07T08:39:24.875Z,25.25
2022-09-07T08:40:26.407Z,25.25
2022-09-07T08:41:37.239Z,25.27
2022-09-07T08:42:57.247Z,25.21
2022-09-07T08:43:59.979Z,25.21
2022-09-07T08:45:04.158Z,25.22
2022-09-07T08:46:14.815Z,25.26
2022-09-07T08:47:25.714Z,25.27
2022-09-07T08:48:29.300Z,25.24
2022-09-07T08:49:37.738Z,25.23
2022-09-07T08:50:41.896Z,25.24
2022-09-07T08:51:45.383Z,25.24
2022-09-07T08:52:48.367Z,25.28
2022-09-07T08:53:50.202Z,25.29
2022-09-07T08:55:21.067Z,25.34
2022-09-07T08:56:23.976Z,25.36
2022-09-07T08:57:27.042Z,25.35
2022-09-07T08:58:48.649Z,25.31
2022-09-07T09:00:11.654Z,25.22
2022-09-07T09:02:43.206Z,25.30
2022-09-07T09:05:21.715Z,25.33
2022-09-07T09:06:43.704Z,25.38
2022-09-07T09:07:57.565Z,25.46
2022-09-07T09:09:23.784Z,25.46
2022-09-07T09:10:31.062Z,25.44
2022-09-07T09:11:38.291Z,25.48
2022-09-07T09:12:55.246Z,25.47
2022-09-07T09:14:08.935Z,25.43
2022-09-07T09:15:21.170Z,25.40
2022-09-07T09:16:24.182Z,25.46
2022-09-07T09:17:28.503Z,25.53
2022-09-07T09:18:30.037Z,25.63
2022-09-07T09:19:58.281Z,25.80
2022-09-07T09:20:59.746Z,25.92
2022-09-07T09:22:07.890Z,26.03
2022-09-07T09:23:13.091Z,26.11
2022-09-07T09:24:19.201Z,26.13
2022-09-07T09:25:21.402Z,26.16
2022-09-07T09:26:23.858Z,26.18
2022-09-07T09:27:25.290Z,26.25
2022-09-07T09:28:28.906Z,26.36
2022-09-07T09:29:33.408Z,26.53
2022-09-07T09:30:34.916Z,26.58
2022-09-07T09:31:36.556Z,26.67
2022-09-07T09:32:39.899Z,26.69
2022-09-07T09:33:42.223Z,26.74
2022-09-07T09:34:56.888Z,26.80
2022-09-07T09:35:59.311Z,26.81
2022-09-07T09:37:00.903Z,26.93
2022-09-07T09:38:05.069Z,27.04
2022-09-07T09:39:25.084Z,27.00
2022-09-07T09:40:35.768Z,27.11
2022-09-07T09:41:37.436Z,27.15
2022-09-07T09:42:39.102Z,27.18
2022-09-07T09:43:44.421Z,27.22
2022-09-07T09:44:46.028Z,27.27
2022-09-07T09:46:12.712Z,27.33
2022-09-07T09:47:30.718Z,27.54
2022-09-07T09:48:33.316Z,27.60
2022-09-07T09:49:35.683Z,27.69
2022-09-07T09:53:26.463Z,28.14
2022-09-07T09:54:29.779Z,28.22
2022-09-07T09:55:36.263Z,28.37
2022-09-07T09:56:38.032Z,28.50
2022-09-07T09:59:04.869Z,28.66
2022-09-07T10:01:21.186Z,28.99
2022-09-07T10:04:55.831Z,29.37
2022-09-07T10:05:57.264Z,29.49
2022-09-07T10:07:09.062Z,29.62
2022-09-07T10:08:26.508Z,29.76
2022-09-07T10:09:37.971Z,29.96
2022-09-07T10:10:39.651Z,30.03
2022-09-07T10:13:08.680Z,30.46
2022-09-07T10:14:36.327Z,30.66
2022-09-07T10:15:40.940Z,30.81
2022-09-07T10:16:44.135Z,30.85
2022-09-07T10:17:45.555Z,30.92
2022-09-07T10:18:56.683Z,31.02
2022-09-07T10:20:16.412Z,31.16
2022-09-07T10:21:36.049Z,31.33
2022-09-07T10:22:37.589Z,31.51
2022-09-07T10:23:39.059Z,31.66
2022-09-07T10:24:41.460Z,31.82
2022-09-07T10:25:45.918Z,31.97
2022-09-07T10:26:48.670Z,32.09
2022-09-07T10:27:55.575Z,32.21
2022-09-07T10:29:12.486Z,32.39
2022-09-07T10:30:14.870Z,32.52
2022-09-07T10:31:19.454Z,32.66
2022-09-07T10:32:24.003Z,32.71
2022-09-07T10:33:43.608Z,32.74
2022-09-07T10:35:05.889Z,32.81
2022-09-07T10:36:07.334Z,32.94
2022-09-07T10:37:09.927Z,33.07
2022-09-07T10:38:24.958Z,33.19
2022-09-07T10:39:37.001Z,33.25
2022-09-07T10:40:42.997Z,33.35
2022-09-07T10:41:57.269Z,33.47
2022-09-07T10:44:26.326Z,33.55
2022-09-07T10:45:30.979Z,33.56
2022-09-07T10:47:00.672Z,33.61
2022-09-07T10:48:14.239Z,33.72
2022-09-07T10:49:15.700Z,33.84
2022-09-07T10:50:23.224Z,33.92
2022-09-07T10:51:33.854Z,34.03
2022-09-07T10:52:41.406Z,34.08
2022-09-07T10:53:46.574Z,34.04
2022-09-07T10:54:55.071Z,34.14
2022-09-07T10:55:56.586Z,34.12
2022-09-07T10:56:58.032Z,34.18
2022-09-07T10:58:11.394Z,34.24
2022-09-07T10:59:15.570Z,34.37
2022-09-07T11:00:17.982Z,34.47
2022-09-07T11:01:23.061Z,34.56
2022-09-07T11:02:28.239Z,34.64
2022-09-07T11:03:32.763Z,34.69
2022-09-07T11:04:44.389Z,34.76
2022-09-07T11:06:04.835Z,34.84
2022-09-07T11:07:29.642Z,34.83
2022-09-07T11:09:15.104Z,34.87
2022-09-07T11:10:15.839Z,34.90
2022-09-07T11:12:00.651Z,34.99
2022-09-07T11:12:45.124Z,35.08
2022-09-07T11:14:09.264Z,35.02
2022-09-07T11:15:14.175Z,35.06
2022-09-07T11:17:53.337Z,34.86
2022-09-07T11:19:35.049Z,34.78
2022-09-07T11:20:18.968Z,34.74
2022-09-07T11:22:49.701Z,34.59
2022-09-07T11:23:55.426Z,34.55
2022-09-07T11:26:30.458Z,34.30
2022-09-07T11:27:39.707Z,34.26
2022-09-07T11:28:46.154Z,34.22
2022-09-07T11:29:48.969Z,34.15
2022-09-07T11:31:11.502Z,34.09
2022-09-07T11:32:15.667Z,34.04
2022-09-07T11:33:20.877Z,33.98
2022-09-07T11:34:25.492Z,33.95
2022-09-07T11:35:31.633Z,33.86
2022-09-07T11:36:33.584Z,33.79
2022-09-07T11:37:43.915Z,33.73
2022-09-07T11:38:46.655Z,33.68
2022-09-07T11:39:48.574Z,33.61
2022-09-07T11:40:58.936Z,33.60
2022-09-07T11:42:42.220Z,33.55
2022-09-07T11:43:23.812Z,33.48
2022-09-07T11:44:26.083Z,33.43
2022-09-07T11:45:27.551Z,33.39
2022-09-07T11:46:33.885Z,33.33
2022-09-07T11:47:44.259Z,33.19
2022-09-07T11:48:46.977Z,33.08
2022-09-07T11:49:54.155Z,33.06
2022-09-07T11:50:59.999Z,33.05
2022-09-07T11:52:08.921Z,33.04
2022-09-07T11:53:29.176Z,33.04
2022-09-07T11:54:36.448Z,33.02
2022-09-07T11:55:38.437Z,32.97
2022-09-07T11:56:39.880Z,32.91
2022-09-07T11:57:55.471Z,32.90
2022-09-07T11:58:57.254Z,32.86
2022-09-07T12:00:02.092Z,32.84
2022-09-07T12:01:29.732Z,32.86
2022-09-07T12:02:55.430Z,32.88
2022-09-07T12:03:52.868Z,32.88
2022-09-07T12:04:57.306Z,32.87
2022-09-07T12:06:11.398Z,32.85
2022-09-07T12:07:31.479Z,32.76
2022-09-07T12:08:54.472Z,32.69
2022-09-07T12:10:15.107Z,32.66
2022-09-07T12:11:23.457Z,32.63
2022-09-07T12:12:28.235Z,32.55
2022-09-07T12:13:41.845Z,32.50
2022-09-07T12:15:01.767Z,32.46
2022-09-07T12:16:19.964Z,32.46
2022-09-07T12:17:24.278Z,32.43
2022-09-07T12:18:41.238Z,32.40
2022-09-07T12:19:42.682Z,32.32
2022-09-07T12:20:44.912Z,32.30
2022-09-07T12:21:50.299Z,32.33
2022-09-07T12:22:54.875Z,32.35
2022-09-07T12:23:56.303Z,32.38
2022-09-07T12:24:58.237Z,32.39
2022-09-07T12:26:18.695Z,32.41
2022-09-07T12:27:20.114Z,32.43
2022-09-07T12:28:24.222Z,32.42
2022-09-07T12:29:26.380Z,32.38
2022-09-07T12:30:30.096Z,32.35
2022-09-07T12:31:57.621Z,32.36
2022-09-07T12:33:04.343Z,32.39
2022-09-07T12:34:35.407Z,32.39
2022-09-07T12:35:40.135Z,32.37
2022-09-07T12:36:46.746Z,32.33
2022-09-07T12:37:48.183Z,32.32
2022-09-07T12:39:06.427Z,32.28
2022-09-07T12:40:27.126Z,32.29
2022-09-07T12:41:40.684Z,32.29
2022-09-07T12:42:42.338Z,32.27
2022-09-07T12:43:43.790Z,32.27
2022-09-07T12:44:45.502Z,32.28
2022-09-07T12:45:47.189Z,32.29
2022-09-07T12:46:50.428Z,32.26
2022-09-07T12:48:04.523Z,32.24
2022-09-07T12:49:17.662Z,32.10
2022-09-07T12:50:21.686Z,32.15
2022-09-07T12:52:45.729Z,32.15
2022-09-07T12:53:54.220Z,32.13
2022-09-07T12:55:27.888Z,32.13
2022-09-07T12:56:29.629Z,32.15
2022-09-07T12:57:34.189Z,32.15
2022-09-07T12:58:41.415Z,32.15
2022-09-07T12:59:49.086Z,32.16
2022-09-07T13:00:53.383Z,32.14
2022-09-07T13:01:54.885Z,32.13
2022-09-07T13:05:06.357Z,32.11
2022-09-07T13:06:16.313Z,32.10
2022-09-07T13:07:20.718Z,32.07
2022-09-07T13:08:40.958Z,32.09
2022-09-07T13:09:42.563Z,32.10
2022-09-07T13:10:44.146Z,32.10
2022-09-07T13:11:45.787Z,32.13
2022-09-07T13:12:57.020Z,32.11
2022-09-07T13:14:14.535Z,32.13
2022-09-07T13:15:36.916Z,32.16
2022-09-07T13:18:00.671Z,32.24
2022-09-07T13:19:03.196Z,32.29
2022-09-07T13:20:06.686Z,32.27
2022-09-07T13:21:08.196Z,32.30
2022-09-07T13:22:28.672Z,32.30
2022-09-07T13:23:30.330Z,32.24
2022-09-07T13:24:46.132Z,32.18
2022-09-07T13:25:50.000Z,32.05
2022-09-07T13:26:51.522Z,32.01
2022-09-07T13:27:56.095Z,32.00
2022-09-07T13:29:04.403Z,31.90
2022-09-07T13:30:43.963Z,31.86
2022-09-07T13:32:04.363Z,31.80
2022-09-07T13:33:24.045Z,31.77
2022-09-07T13:34:34.602Z,31.75
2022-09-07T13:35:36.042Z,31.71
2022-09-07T13:36:44.760Z,31.75
2022-09-07T13:37:52.382Z,31.78
2022-09-07T13:38:54.025Z,31.79
2022-09-07T13:39:56.389Z,31.81
2022-09-07T13:41:04.255Z,31.81
2022-09-07T13:42:05.720Z,31.81
2022-09-07T13:43:07.334Z,31.82
2022-09-07T13:44:15.221Z,31.82
2022-09-07T13:45:26.975Z,31.81
2022-09-07T13:46:33.677Z,31.85
2022-09-07T13:47:35.205Z,31.84
2022-09-07T13:48:48.834Z,31.86
2022-09-07T13:49:56.320Z,31.84
2022-09-07T13:50:57.797Z,31.83
2022-09-07T13:51:59.207Z,31.80
2022-09-07T13:53:00.654Z,31.80
2022-09-07T13:54:14.246Z,31.78
2022-09-07T13:55:27.837Z,31.78
2022-09-07T13:56:32.087Z,31.78
2022-09-07T13:57:43.154Z,31.78
2022-09-07T13:58:46.458Z,31.77
2022-09-07T13:59:47.932Z,31.76
2022-09-07T14:00:52.992Z,31.74
2022-09-07T14:01:54.557Z,31.73
2022-09-07T14:02:57.144Z,31.74
2022-09-07T14:03:59.838Z,31.75
2022-09-07T14:05:01.394Z,31.78
2022-09-07T14:06:14.798Z,31.80
2022-09-07T14:07:17.074Z,31.79
2022-09-07T14:08:25.526Z,31.80
2022-09-07T14:09:26.953Z,31.79
2022-09-07T14:10:29.188Z,31.74
2022-09-07T14:11:38.827Z,31.73
2022-09-07T14:13:03.141Z,31.69
2022-09-07T14:14:14.730Z,31.64
2022-09-07T14:15:22.328Z,31.62
2022-09-07T14:16:23.945Z,31.66
2022-09-07T14:17:25.451Z,31.69
2022-09-07T14:18:30.223Z,31.69
2022-09-07T14:19:39.406Z,31.61
2022-09-07T14:20:41.814Z,31.59
2022-09-07T14:21:43.274Z,31.57
2022-09-07T14:22:45.994Z,31.57
2022-09-07T14:23:49.498Z,31.55
2022-09-07T14:24:51.810Z,31.57
2022-09-07T14:26:26.322Z,31.53
2022-09-07T14:27:34.974Z,31.49
2022-09-07T14:28:36.885Z,31.49
2022-09-07T14:29:38.342Z,31.50
2022-09-07T14:30:41.906Z,31.49
2022-09-07T14:31:44.027Z,31.49
2022-09-07T14:32:48.735Z,31.45
2022-09-07T14:33:51.831Z,31.45
2022-09-07T14:34:53.354Z,31.43
2022-09-07T14:35:54.835Z,31.42
2022-09-07T14:36:56.943Z,31.41
2022-09-07T14:38:01.038Z,31.40
2022-09-07T14:39:13.332Z,31.36
2022-09-07T14:40:20.734Z,31.28
2022-09-07T14:41:22.302Z,31.26
2022-09-07T14:42:23.888Z,31.23
2022-09-07T14:43:28.519Z,31.21